Time;durP1;ratioP1;P1;durP2;ratioP2;P2;SDS_P1;SDS_P2;PMS_P1;PMS_P2;Temp;Humidity;BMP_temperature;BMP_pressure;BME280_temperature;BME280_humidity;BME280_pressure;Samples;Min_cycle;Max_cycle;Signal;HPM_P1;HPM_P2
2021/06/27 00:01:25;;;;;;;6.48;5.63;;;;;;;16.31;82.66;96871.23;127523;1093;23189;-96
2021/06/27 00:03:57;;;;;;;8.68;6.63;;;;;;;16.38;82.39;96868.13;127533;1093;26337;-91
2021/06/27 00:06:28;;;;;;;8.87;6.87;;;;;;;16.33;82.38;96866.39;127338;1093;113724;-94
2021/06/27 00:09:00;;;;;;;9.28;7.03;;;;;;;16.30;82.57;96864.31;127433;1093;50984;-92
2021/06/27 00:11:31;;;;;;;8.28;6.28;;;;;;;16.26;82.49;96866.03;127365;1093;114215;-92
2021/06/27 00:14:04;;;;;;;9.48;6.48;;;;;;;16.20;82.64;96880.65;127442;1093;30844;-91
2021/06/27 00:16:36;;;;;;;9.65;7.08;;;;;;;16.15;82.46;96873.52;127384;1093;66088;-91
2021/06/27 00:19:09;;;;;;;8.60;6.40;;;;;;;16.13;82.66;96875.72;127468;1093;113983;-95
2021/06/27 00:21:40;;;;;;;9.70;7.05;;;;;;;16.03;83.01;96874.09;127608;1093;26946;-92
2021/06/27 00:24:12;;;;;;;7.25;6.28;;;;;;;16.03;83.10;96866.06;127529;1093;113734;-90
2021/06/27 00:26:43;;;;;;;8.28;6.33;;;;;;;16.10;83.14;96865.64;127617;1093;22838;-90
2021/06/27 00:29:15;;;;;;;8.73;6.13;;;;;;;16.15;83.23;96867.39;127451;1093;113883;-90
2021/06/27 00:31:46;;;;;;;8.58;6.13;;;;;;;16.16;82.99;96871.64;127440;1093;22815;-92
2021/06/27 00:34:17;;;;;;;9.03;6.57;;;;;;;16.14;83.08;96871.16;127568;1093;23057;-91
2021/06/27 00:36:49;;;;;;;9.28;6.85;;;;;;;16.12;82.96;96881.38;127326;1093;114287;-90
2021/06/27 00:39:20;;;;;;;8.30;6.20;;;;;;;16.07;82.84;96870.82;127529;1092;44946;-90
2021/06/27 00:41:51;;;;;;;7.08;6.00;;;;;;;16.09;82.82;96876.66;127590;1093;114387;-89
2021/06/27 00:44:23;;;;;;;7.45;5.50;;;;;;;16.02;82.47;96877.86;127673;1093;22835;-91
2021/06/27 00:46:56;;;;;;;8.75;5.95;;;;;;;15.94;82.78;96875.94;127478;1093;114183;-90
2021/06/27 00:49:27;;;;;;;10.13;6.25;;;;;;;15.91;82.96;96878.45;127509;1093;30553;-91
2021/06/27 00:51:58;;;;;;;8.03;6.23;;;;;;;15.93;83.18;96878.92;127482;1093;23695;-93
2021/06/27 00:54:29;;;;;;;8.38;6.38;;;;;;;15.99;83.27;96878.48;127391;1093;114458;-92
2021/06/27 00:57:01;;;;;;;7.75;5.90;;;;;;;15.90;82.67;96880.30;127495;1093;24066;-95
2021/06/27 00:59:32;;;;;;;7.57;6.03;;;;;;;15.83;82.90;96879.95;127404;1093;113743;-92
2021/06/27 01:02:04;;;;;;;8.15;5.90;;;;;;;15.74;82.81;96881.77;127637;1093;22843;-90
2021/06/27 01:04:37;;;;;;;8.98;5.68;;;;;;;15.68;83.20;96881.11;127626;1092;50375;-91
2021/06/27 01:07:09;;;;;;;7.73;5.53;;;;;;;15.66;83.27;96879.84;127583;1093;114193;-93
2021/06/27 01:09:41;;;;;;;6.98;5.08;;;;;;;15.61;83.31;96880.73;127686;1093;23736;-90
2021/06/27 01:12:13;;;;;;;5.28;4.60;;;;;;;15.60;83.65;96884.50;127500;1092;113664;-91
2021/06/27 01:14:44;;;;;;;9.45;5.20;;;;;;;15.63;83.79;96880.45;127658;1093;27474;-91
2021/06/27 01:17:16;;;;;;;8.73;5.30;;;;;;;15.66;83.91;96890.53;127528;1093;114340;-90
2021/06/27 01:19:47;;;;;;;8.83;5.95;;;;;;;15.72;84.08;96889.31;127657;1093;23887;-91
2021/06/27 01:22:18;;;;;;;8.23;6.40;;;;;;;15.78;83.83;96881.97;127625;1093;24436;-90
2021/06/27 01:24:50;;;;;;;6.93;5.50;;;;;;;15.85;83.98;96880.44;127571;1093;114205;-92
2021/06/27 01:27:22;;;;;;;7.55;5.45;;;;;;;15.89;83.58;96878.72;127652;1093;22812;-92
2021/06/27 01:29:53;;;;;;;8.80;6.13;;;;;;;15.93;83.60;96873.58;127530;1093;114079;-91
2021/06/27 01:32:27;;;;;;;7.33;5.95;;;;;;;15.97;83.38;96875.33;127477;1093;22832;-90
2021/06/27 01:34:58;;;;;;;8.90;5.90;;;;;;;16.01;83.21;96876.28;127383;1093;114033;-92
2021/06/27 01:37:30;;;;;;;12.15;7.25;;;;;;;16.02;83.13;96875.19;127515;1093;22989;-93
2021/06/27 01:40:01;;;;;;;7.88;6.60;;;;;;;15.94;82.95;96880.50;127518;1093;23062;-92
2021/06/27 01:42:32;;;;;;;9.35;6.38;;;;;;;15.93;83.22;96879.71;127499;1092;114096;-91
2021/06/27 01:45:13;;;;;;;8.30;6.13;;;;;;;15.98;83.35;96874.23;127640;1092;22815;-90
2021/06/27 01:47:45;;;;;;;8.33;6.15;;;;;;;15.99;82.88;96880.36;127409;1093;113890;-91
2021/06/27 01:50:16;;;;;;;7.95;5.75;;;;;;;15.84;82.20;96876.19;127507;1093;22888;-93
2021/06/27 01:52:48;;;;;;;6.83;5.00;;;;;;;15.72;82.32;96868.72;127405;1093;114377;-91
2021/06/27 01:55:20;;;;;;;7.55;5.35;;;;;;;15.56;82.40;96869.36;127502;1093;24441;-93
2021/06/27 01:57:52;;;;;;;7.85;5.10;;;;;;;15.46;82.53;96875.72;127507;1093;22874;-90
2021/06/27 02:00:27;;;;;;;5.38;4.20;;;;;;;15.49;82.61;96890.38;127403;1093;113928;-92
2021/06/27 02:03:00;;;;;;;5.20;3.83;;;;;;;15.47;82.19;96879.18;127543;1093;22759;-91
2021/06/27 02:05:33;;;;;;;5.83;4.83;;;;;;;15.29;81.88;96881.72;127408;1093;114433;-91
2021/06/27 02:08:04;;;;;;;7.95;4.53;;;;;;;15.16;82.11;96871.86;127538;1093;24287;-89
2021/06/27 02:10:36;;;;;;;6.80;4.67;;;;;;;15.07;81.98;96879.02;127599;1093;26373;-90
2021/06/27 02:13:07;;;;;;;7.65;4.63;;;;;;;14.98;82.46;96881.59;127440;1093;113546;-94
2021/06/27 02:15:39;;;;;;;5.23;4.30;;;;;;;14.95;82.67;96886.75;127690;1093;23663;-88
2021/06/27 02:18:27;;;;;;;9.45;4.08;;;;;;;14.91;82.94;96891.09;127474;1092;113774;-91
2021/06/27 02:21:01;;;;;;;5.23;3.80;;;;;;;14.89;83.56;96882.59;127505;1093;49850;-88
2021/06/27 02:23:33;;;;;;;4.60;3.68;;;;;;;14.92;83.71;96890.81;127505;1093;114106;-90
2021/06/27 02:26:05;;;;;;;4.98;3.78;;;;;;;14.92;83.52;96892.66;127604;1093;50223;-90
2021/06/27 02:28:37;;;;;;;5.00;4.05;;;;;;;14.92;83.86;96893.48;127579;1093;23987;-91
2021/06/27 02:31:09;;;;;;;6.35;4.35;;;;;;;14.93;83.89;96888.94;127578;1092;113784;-90
2021/06/27 02:33:41;;;;;;;6.33;5.05;;;;;;;14.97;84.06;96896.03;127630;1093;46610;-91
2021/06/27 02:36:12;;;;;;;9.10;5.35;;;;;;;15.02;84.07;96892.46;127568;1093;114460;-91
2021/06/27 02:38:44;;;;;;;7.63;5.93;;;;;;;15.13;84.36;96889.28;127626;1092;22987;-92
2021/06/27 02:41:16;;;;;;;8.48;5.50;;;;;;;15.18;84.16;96891.03;127504;1093;114253;-91
2021/06/27 02:43:47;;;;;;;6.83;5.18;;;;;;;15.11;83.83;96885.33;127670;1093;24794;-90
2021/06/27 02:46:19;;;;;;;6.68;5.95;;;;;;;15.11;84.22;96886.13;127533;1093;28866;-90
2021/06/27 02:48:50;;;;;;;11.95;6.55;;;;;;;15.11;84.29;96886.13;127503;1093;114453;-92
2021/06/27 02:51:22;;;;;;;8.93;5.88;;;;;;;15.15;84.30;96883.63;127632;1093;23869;-90
2021/06/27 02:53:53;;;;;;;8.25;5.80;;;;;;;15.21;84.65;96885.12;127425;1092;114253;-96
2021/06/27 02:56:26;;;;;;;8.10;5.55;;;;;;;15.27;84.61;96880.44;127482;1093;24973;-90
2021/06/27 02:58:58;;;;;;;7.05;5.35;;;;;;;15.34;84.65;96876.28;127521;1093;114308;-90
2021/06/27 03:01:29;;;;;;;6.48;5.33;;;;;;;15.43;84.41;96881.67;127612;1093;40110;-90
2021/06/27 03:04:00;;;;;;;8.13;6.00;;;;;;;15.48;84.67;96886.10;127598;1093;52716;-89
2021/06/27 03:06:31;;;;;;;9.03;6.60;;;;;;;15.57;84.70;96881.63;127454;1093;113749;-91
2021/06/27 03:09:03;;;;;;;8.48;5.98;;;;;;;15.61;84.55;96872.72;127598;1093;23662;-90
2021/06/27 03:11:34;;;;;;;9.15;6.43;;;;;;;15.67;84.69;96870.73;127503;1093;114208;-91
2021/06/27 03:14:06;;;;;;;7.03;5.58;;;;;;;15.71;84.61;96871.69;127604;1093;22838;-90
2021/06/27 03:16:37;;;;;;;7.68;5.60;;;;;;;15.76;84.67;96868.89;127480;1093;50434;-91
2021/06/27 03:19:13;;;;;;;7.63;5.58;;;;;;;15.85;84.71;96867.07;127399;1092;113532;-91
2021/06/27 03:21:45;;;;;;;7.58;5.13;;;;;;;15.97;84.79;96869.98;127524;1093;25805;-89
2021/06/27 03:24:16;;;;;;;8.78;6.20;;;;;;;16.08;84.60;96872.40;127500;1093;113878;-89
2021/06/27 03:26:47;;;;;;;9.50;6.38;;;;;;;16.12;84.50;96868.01;127589;1092;22829;-90
2021/06/27 03:29:19;;;;;;;8.75;6.03;;;;;;;16.20;84.40;96862.71;127335;1093;114347;-90
2021/06/27 03:31:50;;;;;;;8.40;5.80;;;;;;;16.21;84.32;96872.31;127686;1093;47873;-91
2021/06/27 03:34:21;;;;;;;6.58;5.45;;;;;;;16.24;84.21;96869.02;127848;1093;22805;-94
2021/06/27 03:36:53;;;;;;;6.80;5.15;;;;;;;16.33;84.22;96877.88;127464;1093;113712;-90
2021/06/27 03:39:24;;;;;;;7.35;5.55;;;;;;;16.43;84.53;96876.02;127654;1093;38931;-90
2021/06/27 03:41:56;;;;;;;6.40;5.38;;;;;;;16.44;84.33;96867.67;127518;1092;114084;-94
2021/06/27 03:44:29;;;;;;;7.23;5.98;;;;;;;16.48;84.53;96865.19;127578;1093;23241;-92
2021/06/27 03:47:01;;;;;;;7.30;5.65;;;;;;;16.56;84.72;96864.41;127563;1093;114456;-89
2021/06/27 03:49:32;;;;;;;7.80;5.88;;;;;;;16.67;84.55;96875.63;127470;1092;23054;-93
2021/06/27 03:52:04;;;;;;;6.88;5.25;;;;;;;16.71;84.27;96865.91;127483;1093;22861;-91
2021/06/27 03:54:35;;;;;;;8.13;5.38;;;;;;;16.74;84.05;96870.63;127343;1093;114548;-91
2021/06/27 03:57:08;;;;;;;7.63;6.00;;;;;;;16.77;84.00;96864.67;127450;1093;50417;-96
2021/06/27 03:59:39;;;;;;;6.48;5.43;;;;;;;16.82;84.05;96859.16;127674;1093;113682;-90
2021/06/27 04:02:10;;;;;;;7.23;5.30;;;;;;;16.91;84.35;96860.77;127788;1093;24449;-91
2021/06/27 04:04:42;;;;;;;6.00;4.98;;;;;;;17.00;84.06;96858.09;127673;1093;51449;-90
2021/06/27 04:07:13;;;;;;;5.93;5.18;;;;;;;16.99;83.47;96867.23;127455;1093;113678;-91
2021/06/27 04:09:44;;;;;;;6.63;5.35;;;;;;;17.02;83.56;96865.81;127697;1093;25589;-91
2021/06/27 04:12:16;;;;;;;7.03;5.40;;;;;;;17.13;83.74;96867.09;127552;1093;113857;-90
2021/06/27 04:14:48;;;;;;;6.63;5.35;;;;;;;17.17;83.46;96863.48;127777;1093;23114;-90
2021/06/27 04:17:21;;;;;;;6.00;4.90;;;;;;;17.19;83.11;96861.28;127528;1093;113869;-90
2021/06/27 04:19:53;;;;;;;8.70;5.55;;;;;;;17.23;82.98;96860.64;127571;1093;24949;-92
2021/06/27 04:22:24;;;;;;;7.58;6.00;;;;;;;17.20;82.88;96854.81;127703;1091;109680;-90
2021/06/27 04:24:56;;;;;;;7.80;5.63;;;;;;;17.24;82.87;96852.29;127759;1093;114188;-91
2021/06/27 04:27:27;;;;;;;7.63;5.90;;;;;;;17.27;82.96;96846.30;127713;1093;25899;-91
2021/06/27 04:29:58;;;;;;;6.78;5.75;;;;;;;17.35;83.21;96853.56;127610;1093;114320;-89
2021/06/27 04:32:30;;;;;;;6.60;5.75;;;;;;;17.45;82.93;96855.11;127765;1093;43596;-91
2021/06/27 04:35:02;;;;;;;7.68;6.75;;;;;;;17.51;82.69;96853.86;127553;1093;113924;-89
2021/06/27 04:37:33;;;;;;;7.00;5.87;;;;;;;17.59;83.08;96849.58;127634;1093;26923;-89
2021/06/27 04:40:07;;;;;;;8.18;5.95;;;;;;;17.67;82.55;96848.80;127585;1093;25852;-89
2021/06/27 04:42:38;;;;;;;7.30;5.85;;;;;;;17.74;82.28;96855.30;127832;1093;113672;-89
2021/06/27 04:45:11;;;;;;;6.58;5.55;;;;;;;17.80;82.03;96858.59;127965;1093;23393;-91
2021/06/27 04:47:43;;;;;;;7.95;6.30;;;;;;;17.85;81.91;96849.58;127775;1092;113639;-91
2021/06/27 04:50:16;;;;;;;8.15;5.83;;;;;;;17.97;82.13;96850.50;127901;1093;24721;-91
2021/06/27 04:52:51;;;;;;;9.03;5.43;;;;;;;18.06;81.81;96850.49;127692;1093;24035;-88
2021/06/27 04:55:23;;;;;;;6.40;5.48;;;;;;;18.17;81.67;96840.99;127551;1093;113707;-89
2021/06/27 04:57:54;;;;;;;8.53;5.80;;;;;;;18.28;81.75;96833.35;127655;1093;30141;-89
2021/06/27 05:00:26;;;;;;;7.00;5.48;;;;;;;18.38;81.60;96835.69;127492;1093;113759;-89
2021/06/27 05:02:57;;;;;;;9.03;5.80;;;;;;;18.51;81.54;96831.20;127602;1093;23971;-89
2021/06/27 05:05:29;;;;;;;7.03;5.23;;;;;;;18.64;81.42;96839.06;127464;1093;114448;-89
2021/06/27 05:08:00;;;;;;;7.03;5.13;;;;;;;18.81;81.32;96824.75;127600;1093;52574;-90
2021/06/27 05:10:32;;;;;;;5.90;4.85;;;;;;;18.91;80.97;96837.02;127672;1093;40178;-90
2021/06/27 05:13:03;;;;;;;6.58;5.28;;;;;;;18.93;80.21;96830.20;127591;1093;114343;-90
2021/06/27 05:15:34;;;;;;;6.10;5.15;;;;;;;18.94;80.38;96831.77;127639;1093;23127;-90
2021/06/27 05:18:06;;;;;;;6.08;5.35;;;;;;;19.04;80.11;96840.58;127533;1093;114285;-90
2021/06/27 05:20:37;;;;;;;6.25;5.20;;;;;;;19.10;79.85;96831.98;127613;1093;51380;-90
2021/06/27 05:23:09;;;;;;;5.68;5.08;;;;;;;19.37;80.20;96830.66;127608;1093;113906;-90
2021/06/27 05:25:40;;;;;;;5.65;4.78;;;;;;;19.83;80.82;96828.84;127709;1093;22817;-89
2021/06/27 05:41:32;;;;;;;7.05;5.40;;;;;;;22.22;76.99;96847.58;129813;1088;22553;-94
2021/06/27 05:47:19;;;;;;;8.25;5.93;;;;;;;22.06;73.05;96852.19;129815;1093;23536;31
2021/06/27 06:00:39;;;;;;;7.30;6.08;;;;;;;23.18;70.44;96865.31;129798;1094;22627;31
2021/06/27 06:03:16;;;;;;;7.43;6.58;;;;;;;23.10;69.35;96861.68;129777;1095;22673;31
2021/06/27 06:05:55;;;;;;;6.28;5.35;;;;;;;23.38;69.81;96862.28;129814;1091;23716;31
2021/06/27 06:08:35;;;;;;;7.20;5.85;;;;;;;23.65;68.64;96863.25;129785;1095;22818;31
2021/06/27 06:11:15;;;;;;;11.10;6.20;;;;;;;23.64;67.86;96861.66;129611;1094;22626;31
2021/06/27 06:13:52;;;;;;;7.95;6.23;;;;;;;24.08;67.69;96864.06;129795;1091;22674;31
2021/06/27 06:16:31;;;;;;;8.05;6.25;;;;;;;24.30;66.55;96859.03;129735;1094;22600;31
2021/06/27 06:19:11;;;;;;;7.88;6.00;;;;;;;24.47;65.79;96863.96;129768;1094;23767;31
2021/06/27 06:21:49;;;;;;;9.25;6.28;;;;;;;24.92;64.63;96865.08;129758;1091;24197;31
2021/06/27 06:24:46;;;;;;;7.63;5.80;;;;;;;25.00;62.80;96866.73;129790;1090;23536;31
2021/06/27 06:30:02;;;;;;;7.73;6.37;;;;;;;24.77;62.14;96870.28;129787;1095;22578;31
2021/06/27 06:32:40;;;;;;;9.80;7.28;;;;;;;24.77;61.25;96873.00;129709;1094;22649;31
2021/06/27 06:35:42;;;;;;;8.43;6.77;;;;;;;24.72;60.53;96877.92;129790;1094;22671;31
2021/06/27 06:38:31;;;;;;;8.03;6.23;;;;;;;24.41;59.17;96877.05;129767;1095;22666;31
2021/06/27 06:41:09;;;;;;;8.07;6.17;;;;;;;23.88;58.49;96876.05;129757;1095;23893;31
2021/06/27 06:43:50;;;;;;;7.73;6.43;;;;;;;23.64;59.35;96874.41;129765;1091;22588;31
2021/06/27 06:49:35;;;;;;;7.88;6.00;;;;;;;24.16;59.01;96884.70;129795;1094;23863;31
2021/06/27 06:54:44;;;;;;;8.05;6.13;;;;;;;24.45;59.55;96877.88;129809;1095;22645;31
2021/06/27 06:59:47;;;;;;;8.03;6.08;;;;;;;24.21;58.61;96875.48;128523;1093;112666;-96
2021/06/27 07:02:19;;;;;;;7.39;5.79;;;;;;;24.22;58.22;96875.15;119186;1091;5224720;-90
2021/06/27 07:04:50;;;;;;;7.45;5.80;;;;;;;24.35;59.20;96881.21;127517;1093;64427;-95
2021/06/27 07:07:22;;;;;;;8.30;6.18;;;;;;;24.31;58.30;96879.56;127497;1093;75175;-91
2021/06/27 07:09:55;;;;;;;8.13;6.13;;;;;;;24.04;58.27;96881.37;127690;1093;32949;-90
2021/06/27 07:12:27;;;;;;;6.20;5.03;;;;;;;23.88;58.44;96886.88;127483;1093;38984;-93
2021/06/27 07:15:01;;;;;;;6.03;5.43;;;;;;;23.53;58.72;96885.02;127672;1092;56067;-93
2021/06/27 07:17:35;;;;;;;6.03;5.43;;;;;;;23.49;59.35;96889.55;129434;1093;34830;-92
2021/06/27 07:20:10;;;;;;;7.50;5.93;;;;;;;23.76;59.30;96889.73;128664;1093;34820;-89
2021/06/27 07:22:42;;;;;;;7.98;5.35;;;;;;;23.99;59.39;96890.58;127608;1093;32400;-93
2021/06/27 07:25:15;;;;;;;7.68;6.33;;;;;;;24.22;59.16;96891.41;124263;1092;2535534;-94
2021/06/27 07:27:47;;;;;;;8.23;5.80;;;;;;;24.47;59.13;96894.55;127749;1093;68359;-93
2021/06/27 07:30:19;;;;;;;9.78;5.40;;;;;;;24.66;58.25;96896.44;127930;1093;27429;-94
2021/06/27 07:32:51;;;;;;;7.70;5.65;;;;;;;25.09;58.90;96891.70;127613;1092;38348;-95
2021/06/27 07:35:22;;;;;;;6.50;5.30;;;;;;;25.50;58.26;96892.66;127809;1093;36841;-90
2021/06/27 07:37:54;;;;;;;7.53;5.70;;;;;;;25.21;56.38;96891.49;127896;1093;37965;-93
2021/06/27 07:40:25;;;;;;;7.18;6.23;;;;;;;24.98;56.93;96901.58;127818;1093;54184;-93
2021/06/27 07:42:57;;;;;;;8.35;6.90;;;;;;;24.90;56.11;96902.61;127930;1093;34363;-94
2021/06/27 07:45:29;;;;;;;9.28;6.40;;;;;;;24.78;56.87;96901.67;128232;1093;38388;-90
2021/06/27 07:48:02;;;;;;;8.60;6.03;;;;;;;24.82;56.60;96901.73;127989;1093;30822;-94
2021/06/27 07:50:34;;;;;;;7.30;5.75;;;;;;;24.54;56.32;96902.83;127704;1093;34325;-93
2021/06/27 07:53:07;;;;;;;8.18;6.25;;;;;;;24.07;55.92;96894.19;127958;1093;35289;-92
2021/06/27 07:55:39;;;;;;;7.63;5.48;;;;;;;23.65;57.12;96901.15;127967;1093;34324;-89
2021/06/27 07:58:11;;;;;;;7.00;5.87;;;;;;;23.48;57.35;96895.31;109447;1093;11416274;-93
2021/06/27 08:00:44;;;;;;;7.95;6.33;;;;;;;23.36;57.94;96907.05;127588;1093;33588;-91
2021/06/27 08:03:16;;;;;;;8.48;5.55;;;;;;;23.68;58.38;96902.36;127554;1093;67707;-93
2021/06/27 08:05:47;;;;;;;7.73;5.18;;;;;;;24.09;58.63;96897.34;127646;1093;41096;-91
2021/06/27 08:08:19;;;;;;;6.05;5.15;;;;;;;24.39;58.56;96897.52;127601;1092;32596;-96
2021/06/27 08:10:51;;;;;;;8.70;5.93;;;;;;;24.47;58.27;96893.77;127514;1093;51297;-91
2021/06/27 08:13:23;;;;;;;7.55;5.88;;;;;;;24.52;57.80;96893.49;127435;1093;111873;-94
2021/06/27 08:15:57;;;;;;;6.88;5.70;;;;;;;24.70;58.42;96904.63;127362;1093;345954;-89
2021/06/27 08:18:29;;;;;;;8.10;5.48;;;;;;;24.96;57.21;96895.73;127714;1093;85805;-90
2021/06/27 08:21:00;;;;;;;6.35;5.48;;;;;;;25.00;57.57;96896.56;127707;1093;41683;-91
2021/06/27 08:23:32;;;;;;;7.18;5.68;;;;;;;25.28;57.35;96885.37;127599;1093;105471;-91
2021/06/27 08:26:05;;;;;;;6.13;5.38;;;;;;;25.78;56.95;96889.55;127878;1092;27740;-89
2021/06/27 08:28:37;;;;;;;8.38;5.88;;;;;;;26.12;56.16;96895.73;127869;1092;29509;-89
2021/06/27 08:31:09;;;;;;;7.30;5.15;;;;;;;26.73;56.00;96896.31;127820;1092;32135;-92
2021/06/27 08:33:41;;;;;;;6.00;5.05;;;;;;;27.53;55.38;96891.81;127998;1093;56739;-96
2021/06/27 08:36:13;;;;;;;7.08;5.53;;;;;;;28.31;54.67;96883.95;127850;1093;29632;-90
2021/06/27 08:38:44;;;;;;;6.63;5.30;;;;;;;28.70;51.67;96883.19;127817;1093;29667;-90
2021/06/27 08:41:18;;;;;;;5.50;4.55;;;;;;;28.92;52.31;96890.23;127821;1093;30110;-90
2021/06/27 08:43:50;;;;;;;8.35;4.60;;;;;;;29.06;50.67;96881.25;127484;1093;37503;-90
2021/06/27 08:46:23;;;;;;;5.68;4.85;;;;;;;27.92;49.11;96891.23;127482;1093;31674;-91
2021/06/27 08:48:59;;;;;;;5.80;5.20;;;;;;;27.64;48.57;96883.73;127538;1093;32452;-90
2021/06/27 08:51:36;;;;;;;6.55;5.15;;;;;;;27.26;49.70;96893.22;127501;1093;27968;-91
2021/06/27 08:54:08;;;;;;;6.00;4.57;;;;;;;27.45;49.67;96882.84;127414;1093;37104;-87
2021/06/27 08:56:41;;;;;;;5.68;5.08;;;;;;;27.30;49.65;96894.02;127395;1093;31011;-89
2021/06/27 08:59:13;;;;;;;6.08;4.55;;;;;;;26.52;49.24;96892.27;127694;1093;27478;-90
2021/06/27 09:01:44;;;;;;;5.63;4.87;;;;;;;25.87;49.81;96892.73;127806;1093;26367;-89
2021/06/27 09:04:18;;;;;;;5.98;4.85;;;;;;;25.38;50.71;96890.16;127418;1093;26258;-89
2021/06/27 09:06:50;;;;;;;6.88;5.03;;;;;;;25.42;51.20;96886.34;127847;1093;27940;-92
2021/06/27 09:09:23;;;;;;;5.30;4.60;;;;;;;25.55;52.06;96883.40;127840;1092;32509;-92
2021/06/27 09:12:03;;;;;;;6.10;4.80;;;;;;;25.79;51.50;96888.39;127855;1093;30229;-93
2021/06/27 09:14:38;;;;;;;5.35;4.83;;;;;;;25.26;51.73;96887.67;127884;1093;26878;-90
2021/06/27 09:17:14;;;;;;;5.33;4.70;;;;;;;25.25;52.33;96894.25;127837;1093;38091;-89
2021/06/27 09:20:05;;;;;;;7.00;4.83;;;;;;;25.19;52.08;96888.34;127809;1093;29676;-91
2021/06/27 09:22:40;;;;;;;6.88;5.18;;;;;;;25.21;52.23;96880.64;127930;1092;26025;-91
2021/06/27 09:25:22;;;;;;;5.68;4.45;;;;;;;25.31;52.09;96881.91;127847;1092;25988;-90
2021/06/27 09:28:07;;;;;;;6.60;5.20;;;;;;;24.65;51.14;96888.67;127877;1093;24727;-89
2021/06/27 09:30:42;;;;;;;6.35;4.70;;;;;;;24.04;51.68;96884.08;127773;1093;46105;-89
2021/06/27 09:33:16;;;;;;;7.73;5.65;;;;;;;23.64;52.25;96882.53;127866;1093;26442;-93
2021/06/27 09:35:55;;;;;;;8.40;5.40;;;;;;;23.51;53.35;96876.47;127817;1093;27922;-91
2021/06/27 09:38:41;;;;;;;5.73;4.53;;;;;;;23.40;53.71;96875.45;127850;1091;31125;-93
2021/06/27 09:41:23;;;;;;;5.83;4.78;;;;;;;23.54;54.11;96878.45;127780;1093;40883;-90
2021/06/27 09:43:57;;;;;;;6.05;4.95;;;;;;;23.79;54.33;96872.77;127900;1093;27786;-90
2021/06/27 09:46:38;;;;;;;6.73;5.78;;;;;;;23.84;54.27;96877.91;127938;1093;26247;-89
2021/06/27 09:49:12;;;;;;;7.48;5.48;;;;;;;23.92;53.70;96877.67;127864;1093;28967;-88
2021/06/27 09:51:52;;;;;;;8.28;5.53;;;;;;;23.79;53.78;96880.89;127847;1093;40298;-88
2021/06/27 09:54:26;;;;;;;6.78;5.30;;;;;;;23.65;53.75;96882.20;127721;1093;31560;-90
2021/06/27 09:56:59;;;;;;;6.70;5.15;;;;;;;23.66;53.55;96881.06;127801;1093;31433;-90
2021/06/27 09:59:38;;;;;;;9.33;5.45;;;;;;;23.76;53.92;96878.90;127809;1092;27171;-89
2021/06/27 10:02:10;;;;;;;6.30;4.53;;;;;;;24.17;54.78;96872.72;127833;1092;26084;-88
2021/06/27 10:04:44;;;;;;;6.53;5.75;;;;;;;23.94;51.76;96877.34;127906;1092;31166;-91
2021/06/27 10:07:16;;;;;;;7.58;5.40;;;;;;;23.58;53.56;96878.55;128001;1093;45346;-87
2021/06/27 10:09:48;;;;;;;7.28;5.43;;;;;;;23.64;54.13;96875.19;127945;1093;51788;-92
2021/06/27 10:12:21;;;;;;;6.90;5.33;;;;;;;23.39;54.10;96882.02;127635;1093;53683;-93
2021/06/27 10:14:59;;;;;;;6.53;5.48;;;;;;;23.39;54.00;96871.19;128461;1090;74919;-93
2021/06/27 10:17:31;;;;;;;6.75;5.15;;;;;;;23.05;53.67;96873.53;128307;1093;82229;-94
2021/06/27 10:20:04;;;;;;;8.10;5.23;;;;;;;23.08;55.12;96872.04;128832;1093;203170;-96
2021/06/27 10:22:37;;;;;;;6.50;5.00;;;;;;;23.56;56.19;96864.56;128294;1093;34299;-94
2021/06/27 10:25:13;;;;;;;7.30;5.23;;;;;;;24.02;54.93;96860.06;128331;1093;35644;-92
2021/06/27 10:27:48;;;;;;;6.85;4.75;;;;;;;24.40;55.36;96859.22;128143;1092;40768;-94
2021/06/27 10:30:20;;;;;;;6.13;4.58;;;;;;;24.75;54.25;96863.63;128053;1093;168499;-92
2021/06/27 10:32:53;;;;;;;5.20;4.70;;;;;;;24.99;54.11;96859.73;128337;1093;31436;-95
2021/06/27 10:35:25;;;;;;;5.60;4.78;;;;;;;25.15;53.98;96860.38;128380;1093;80684;-96
2021/06/27 10:37:59;;;;;;;6.23;4.60;;;;;;;25.10;53.03;96863.42;128442;1093;67348;-94
2021/06/27 10:40:52;;;;;;;6.38;4.88;;;;;;;25.06;53.03;96868.80;128227;1093;60701;-94
2021/06/27 10:43:25;;;;;;;7.40;5.08;;;;;;;25.06;52.81;96857.17;128309;1093;39593;-95
2021/06/27 10:46:02;;;;;;;5.30;4.80;;;;;;;25.01;53.02;96849.33;128215;1092;45428;-93
2021/06/27 10:48:41;;;;;;;5.00;4.10;;;;;;;24.99;52.94;96852.38;128490;1093;32586;-94
2021/06/27 10:51:14;;;;;;;4.83;4.15;;;;;;;25.02;52.19;96837.33;128428;1091;57887;-91
2021/06/27 10:54:14;;;;;;;6.50;4.40;;;;;;;25.07;52.44;96842.46;128076;1092;35987;-92
2021/06/27 10:57:04;;;;;;;6.23;4.48;;;;;;;25.01;51.03;96839.27;128335;1093;26582;-92
2021/06/27 11:00:02;;;;;;;5.43;4.30;;;;;;;25.01;52.17;96833.84;128178;1093;59635;-91
2021/06/27 11:02:41;;;;;;;5.63;4.20;;;;;;;25.45;53.48;96835.95;128259;1093;26709;-93
2021/06/27 11:08:48;;;;;;;5.95;4.78;;;;;;;25.38;49.72;96828.52;128350;1093;31924;-90
2021/06/27 11:11:23;;;;;;;6.43;4.73;;;;;;;24.83;49.80;96830.84;128045;1092;34540;-91
2021/06/27 11:14:16;;;;;;;5.65;4.68;;;;;;;24.41;50.52;96836.39;127926;1093;42527;-92
2021/06/27 11:17:09;;;;;;;5.90;4.20;;;;;;;24.35;50.84;96837.04;127974;1093;51865;-90
2021/06/27 11:19:43;;;;;;;5.55;4.45;;;;;;;24.44;51.63;96832.95;127890;1093;34945;-90
2021/06/27 11:22:18;;;;;;;6.05;4.35;;;;;;;24.68;51.64;96831.00;127904;1092;26591;-91
2021/06/27 11:24:51;;;;;;;4.80;4.20;;;;;;;24.93;49.99;96831.38;127891;1093;27028;-94
2021/06/27 11:27:34;;;;;;;5.30;4.10;;;;;;;24.75;50.16;96831.88;127847;1093;28540;-88
2021/06/27 11:30:27;;;;;;;4.83;4.03;;;;;;;24.75;49.68;96820.25;127968;1093;26160;-91
2021/06/27 11:33:14;;;;;;;6.05;4.68;;;;;;;24.90;51.20;96821.23;127878;1093;29807;-91
2021/06/27 11:35:48;;;;;;;5.40;4.53;;;;;;;25.18;52.07;96818.94;127815;1093;40283;-91
2021/06/27 11:38:42;;;;;;;7.65;4.95;;;;;;;25.30;52.26;96813.28;127862;1093;37912;-91
2021/06/27 11:41:30;;;;;;;5.80;4.85;;;;;;;25.19;51.22;96817.79;127759;1093;29127;-91
2021/06/27 11:44:04;;;;;;;5.48;4.30;;;;;;;25.10;51.69;96817.30;127865;1093;39887;-92
2021/06/27 11:46:38;;;;;;;6.30;4.90;;;;;;;25.11;51.78;96818.86;127934;1093;65047;-91
2021/06/27 11:49:12;;;;;;;6.43;3.95;;;;;;;25.12;51.68;96815.00;127925;1093;33967;-91
2021/06/27 11:51:47;;;;;;;5.08;4.30;;;;;;;25.09;50.99;96816.52;127924;1092;30921;-91
2021/06/27 11:54:21;;;;;;;5.98;4.43;;;;;;;25.04;51.09;96813.33;127854;1092;61111;-91
2021/06/27 11:57:05;;;;;;;5.80;4.55;;;;;;;25.08;50.98;96808.75;128143;1092;37283;-92
2021/06/27 11:59:39;;;;;;;5.25;4.18;;;;;;;25.10;51.85;96809.95;127996;1093;54155;-92
2021/06/27 12:02:18;;;;;;;5.43;4.73;;;;;;;25.09;50.90;96810.31;128188;1093;26563;-90
2021/06/27 12:04:53;;;;;;;5.15;4.50;;;;;;;25.06;51.09;96797.49;128091;1093;29396;-91
2021/06/27 12:07:37;;;;;;;5.40;4.60;;;;;;;24.92;50.89;96799.98;128029;1093;31775;-91
2021/06/27 12:10:22;;;;;;;6.48;4.90;;;;;;;24.74;50.65;96803.20;127744;1093;221606;-90
2021/06/27 12:12:56;;;;;;;7.20;4.73;;;;;;;24.76;51.73;96795.48;128119;1093;60903;-91
2021/06/27 12:15:37;;;;;;;5.83;5.05;;;;;;;24.97;52.30;96799.66;127905;1093;62947;-91
2021/06/27 12:18:09;;;;;;;;;;;;;;;25.00;52.37;96802.44;127913;1092;39263;-89
2021/06/27 12:20:47;;;;;;;5.70;4.95;;;;;;;25.03;52.40;96803.63;127874;1093;34917;-91
2021/06/27 12:23:20;;;;;;;5.65;5.05;;;;;;;25.03;52.26;96792.78;127875;1093;37522;-92
2021/06/27 12:25:54;;;;;;;5.70;4.68;;;;;;;25.10;53.11;96792.88;127829;1093;36482;-92
2021/06/27 12:28:34;;;;;;;5.43;4.57;;;;;;;25.13;52.50;96792.14;127835;1093;63242;-92
2021/06/27 12:31:15;;;;;;;5.70;4.80;;;;;;;25.26;52.76;96798.90;127977;1093;78292;-91
2021/06/27 12:33:49;;;;;;;6.63;5.23;;;;;;;25.42;52.95;96798.70;127915;1093;31120;-91
2021/06/27 12:36:28;;;;;;;5.90;4.53;;;;;;;25.53;52.24;96786.03;127886;1093;30300;-94
2021/06/27 12:39:02;;;;;;;4.88;4.48;;;;;;;25.62;51.62;96791.19;127874;1093;39074;-92